sensor_id;sensor_type;location;lat;lon;timestamp;P1;durP1;ratioP1;P2;durP2;ratioP2
77417;SDS011;66490;51.484;0.026;2023-04-25T00:01:17;21.58;;;4.38;;
77417;SDS011;66490;51.484;0.026;2023-04-25T00:04:03;20.92;;;4.63;;
77417;SDS011;66490;51.484;0.026;2023-04-25T00:06:47;14.15;;;3.55;;
77417;SDS011;66490;51.484;0.026;2023-04-25T00:09:31;15.37;;;3.67;;
77417;SDS011;66490;51.484;0.026;2023-04-25T00:12:15;20.38;;;3.65;;
77417;SDS011;66490;51.484;0.026;2023-04-25T00:15:00;20.02;;;3.75;;
77417;SDS011;66490;51.484;0.026;2023-04-25T00:17:44;21.85;;;3.47;;
77417;SDS011;66490;51.484;0.026;2023-04-25T00:20:29;10.35;;;3.42;;
77417;SDS011;66490;51.484;0.026;2023-04-25T00:23:14;12.37;;;3.00;;
77417;SDS011;66490;51.484;0.026;2023-04-25T00:26:04;12.30;;;3.67;;
77417;SDS011;66490;51.484;0.026;2023-04-25T00:28:48;17.67;;;3.60;;
77417;SDS011;66490;51.484;0.026;2023-04-25T00:31:32;12.30;;;2.88;;
77417;SDS011;66490;51.484;0.026;2023-04-25T00:34:16;20.00;;;3.53;;
77417;SDS011;66490;51.484;0.026;2023-04-25T00:37:02;15.60;;;3.63;;
77417;SDS011;66490;51.484;0.026;2023-04-25T00:39:46;20.73;;;4.03;;
77417;SDS011;66490;51.484;0.026;2023-04-25T00:42:30;16.35;;;3.80;;
77417;SDS011;66490;51.484;0.026;2023-04-25T00:45:15;16.05;;;3.70;;
77417;SDS011;66490;51.484;0.026;2023-04-25T00:48:00;10.27;;;3.63;;
77417;SDS011;66490;51.484;0.026;2023-04-25T00:50:48;13.67;;;3.07;;
77417;SDS011;66490;51.484;0.026;2023-04-25T00:53:34;13.18;;;2.85;;
77417;SDS011;66490;51.484;0.026;2023-04-25T00:56:19;14.98;;;3.53;;
77417;SDS011;66490;51.484;0.026;2023-04-25T00:59:04;10.40;;;3.30;;
77417;SDS011;66490;51.484;0.026;2023-04-25T01:01:51;17.00;;;3.70;;
77417;SDS011;66490;51.484;0.026;2023-04-25T01:04:35;13.40;;;3.33;;
77417;SDS011;66490;51.484;0.026;2023-04-25T01:07:20;14.43;;;3.83;;
77417;SDS011;66490;51.484;0.026;2023-04-25T01:10:04;14.40;;;3.08;;
77417;SDS011;66490;51.484;0.026;2023-04-25T01:12:49;14.18;;;2.88;;
77417;SDS011;66490;51.484;0.026;2023-04-25T01:15:33;17.27;;;4.13;;
77417;SDS011;66490;51.484;0.026;2023-04-25T01:18:21;11.33;;;3.10;;
77417;SDS011;66490;51.484;0.026;2023-04-25T01:21:12;13.52;;;3.17;;
77417;SDS011;66490;51.484;0.026;2023-04-25T01:23:59;11.68;;;2.80;;
77417;SDS011;66490;51.484;0.026;2023-04-25T01:26:43;11.43;;;2.58;;
77417;SDS011;66490;51.484;0.026;2023-04-25T01:29:33;13.20;;;2.90;;
77417;SDS011;66490;51.484;0.026;2023-04-25T01:32:18;17.13;;;2.53;;
77417;SDS011;66490;51.484;0.026;2023-04-25T01:35:02;13.20;;;3.60;;
77417;SDS011;66490;51.484;0.026;2023-04-25T01:37:46;15.50;;;3.58;;
77417;SDS011;66490;51.484;0.026;2023-04-25T01:40:33;17.63;;;3.45;;
77417;SDS011;66490;51.484;0.026;2023-04-25T01:43:18;14.18;;;3.50;;
77417;SDS011;66490;51.484;0.026;2023-04-25T01:46:02;15.43;;;3.20;;
77417;SDS011;66490;51.484;0.026;2023-04-25T01:48:46;12.27;;;3.10;;
77417;SDS011;66490;51.484;0.026;2023-04-25T01:51:33;16.10;;;3.45;;
77417;SDS011;66490;51.484;0.026;2023-04-25T01:54:20;12.23;;;2.88;;
77417;SDS011;66490;51.484;0.026;2023-04-25T01:57:10;11.55;;;3.38;;
77417;SDS011;66490;51.484;0.026;2023-04-25T01:59:58;12.07;;;3.00;;
77417;SDS011;66490;51.484;0.026;2023-04-25T02:02:42;17.52;;;3.80;;
77417;SDS011;66490;51.484;0.026;2023-04-25T02:05:27;11.07;;;3.13;;
77417;SDS011;66490;51.484;0.026;2023-04-25T02:08:11;13.52;;;2.70;;
77417;SDS011;66490;51.484;0.026;2023-04-25T02:10:55;13.23;;;3.63;;
77417;SDS011;66490;51.484;0.026;2023-04-25T02:13:39;12.13;;;3.40;;
77417;SDS011;66490;51.484;0.026;2023-04-25T02:16:26;14.27;;;3.60;;
77417;SDS011;66490;51.484;0.026;2023-04-25T02:19:10;10.90;;;3.17;;
77417;SDS011;66490;51.484;0.026;2023-04-25T02:21:54;11.20;;;2.72;;
77417;SDS011;66490;51.484;0.026;2023-04-25T02:24:38;9.73;;;3.70;;
77417;SDS011;66490;51.484;0.026;2023-04-25T02:27:23;9.33;;;3.33;;
77417;SDS011;66490;51.484;0.026;2023-04-25T02:30:07;14.95;;;3.85;;
77417;SDS011;66490;51.484;0.026;2023-04-25T02:32:51;13.00;;;3.90;;
77417;SDS011;66490;51.484;0.026;2023-04-25T02:35:35;14.05;;;3.35;;
77417;SDS011;66490;51.484;0.026;2023-04-25T02:38:19;12.75;;;3.70;;
77417;SDS011;66490;51.484;0.026;2023-04-25T02:41:07;16.33;;;4.27;;
77417;SDS011;66490;51.484;0.026;2023-04-25T02:43:51;12.57;;;3.55;;
77417;SDS011;66490;51.484;0.026;2023-04-25T02:46:35;12.05;;;4.07;;
77417;SDS011;66490;51.484;0.026;2023-04-25T02:49:18;14.80;;;3.47;;
77417;SDS011;66490;51.484;0.026;2023-04-25T02:52:02;9.77;;;4.00;;
77417;SDS011;66490;51.484;0.026;2023-04-25T02:54:46;11.53;;;2.90;;
77417;SDS011;66490;51.484;0.026;2023-04-25T02:57:30;18.90;;;3.95;;
77417;SDS011;66490;51.484;0.026;2023-04-25T03:00:14;17.35;;;3.75;;
77417;SDS011;66490;51.484;0.026;2023-04-25T03:02:58;13.88;;;3.10;;
77417;SDS011;66490;51.484;0.026;2023-04-25T03:05:45;13.35;;;3.42;;
77417;SDS011;66490;51.484;0.026;2023-04-25T03:08:30;12.60;;;3.47;;
77417;SDS011;66490;51.484;0.026;2023-04-25T03:11:18;9.27;;;3.33;;
77417;SDS011;66490;51.484;0.026;2023-04-25T03:14:05;10.52;;;4.15;;
77417;SDS011;66490;51.484;0.026;2023-04-25T03:16:49;18.50;;;4.10;;
77417;SDS011;66490;51.484;0.026;2023-04-25T03:19:33;14.55;;;3.65;;
77417;SDS011;66490;51.484;0.026;2023-04-25T03:22:17;11.73;;;2.87;;
77417;SDS011;66490;51.484;0.026;2023-04-25T03:25:01;13.35;;;3.25;;
77417;SDS011;66490;51.484;0.026;2023-04-25T03:27:48;12.00;;;3.33;;
77417;SDS011;66490;51.484;0.026;2023-04-25T03:30:35;13.48;;;3.33;;
77417;SDS011;66490;51.484;0.026;2023-04-25T03:33:19;10.55;;;2.70;;
77417;SDS011;66490;51.484;0.026;2023-04-25T03:36:03;17.47;;;3.07;;
77417;SDS011;66490;51.484;0.026;2023-04-25T03:38:48;13.68;;;3.10;;
77417;SDS011;66490;51.484;0.026;2023-04-25T03:41:32;17.30;;;3.58;;
77417;SDS011;66490;51.484;0.026;2023-04-25T03:44:15;19.17;;;2.95;;
77417;SDS011;66490;51.484;0.026;2023-04-25T03:46:59;16.58;;;4.00;;
77417;SDS011;66490;51.484;0.026;2023-04-25T03:49:44;13.73;;;3.40;;
77417;SDS011;66490;51.484;0.026;2023-04-25T03:52:28;12.73;;;3.25;;
77417;SDS011;66490;51.484;0.026;2023-04-25T03:55:12;11.32;;;2.78;;
77417;SDS011;66490;51.484;0.026;2023-04-25T03:57:57;13.77;;;3.95;;
77417;SDS011;66490;51.484;0.026;2023-04-25T04:00:44;12.00;;;3.60;;
77417;SDS011;66490;51.484;0.026;2023-04-25T04:03:28;13.50;;;3.30;;
77417;SDS011;66490;51.484;0.026;2023-04-25T04:06:12;18.40;;;3.88;;
77417;SDS011;66490;51.484;0.026;2023-04-25T04:08:56;14.40;;;3.45;;
77417;SDS011;66490;51.484;0.026;2023-04-25T04:11:43;11.48;;;3.00;;
77417;SDS011;66490;51.484;0.026;2023-04-25T04:14:28;10.73;;;3.75;;
77417;SDS011;66490;51.484;0.026;2023-04-25T04:17:11;8.20;;;2.77;;
77417;SDS011;66490;51.484;0.026;2023-04-25T04:19:55;12.23;;;3.25;;
77417;SDS011;66490;51.484;0.026;2023-04-25T04:22:40;14.45;;;3.63;;
77417;SDS011;66490;51.484;0.026;2023-04-25T04:25:24;14.50;;;3.88;;
77417;SDS011;66490;51.484;0.026;2023-04-25T04:28:08;10.68;;;3.47;;
77417;SDS011;66490;51.484;0.026;2023-04-25T04:30:52;11.23;;;3.30;;
77417;SDS011;66490;51.484;0.026;2023-04-25T04:33:36;13.38;;;3.40;;
77417;SDS011;66490;51.484;0.026;2023-04-25T04:36:20;12.68;;;3.92;;
77417;SDS011;66490;51.484;0.026;2023-04-25T04:39:05;16.27;;;3.42;;
77417;SDS011;66490;51.484;0.026;2023-04-25T04:41:50;12.63;;;3.30;;
77417;SDS011;66490;51.484;0.026;2023-04-25T04:44:35;10.83;;;3.13;;
77417;SDS011;66490;51.484;0.026;2023-04-25T04:47:20;17.50;;;3.70;;
77417;SDS011;66490;51.484;0.026;2023-04-25T04:50:08;12.85;;;3.67;;
77417;SDS011;66490;51.484;0.026;2023-04-25T04:52:55;8.32;;;2.88;;
77417;SDS011;66490;51.484;0.026;2023-04-25T04:55:41;10.40;;;3.45;;
77417;SDS011;66490;51.484;0.026;2023-04-25T04:58:26;12.23;;;3.03;;
77417;SDS011;66490;51.484;0.026;2023-04-25T05:01:12;14.45;;;4.13;;
77417;SDS011;66490;51.484;0.026;2023-04-25T05:03:57;12.52;;;3.78;;
77417;SDS011;66490;51.484;0.026;2023-04-25T05:06:43;10.82;;;2.70;;
77417;SDS011;66490;51.484;0.026;2023-04-25T05:09:31;12.32;;;3.17;;
77417;SDS011;66490;51.484;0.026;2023-04-25T05:12:15;9.83;;;3.10;;
77417;SDS011;66490;51.484;0.026;2023-04-25T05:14:59;10.18;;;2.75;;
77417;SDS011;66490;51.484;0.026;2023-04-25T05:17:44;9.00;;;3.53;;
77417;SDS011;66490;51.484;0.026;2023-04-25T05:20:28;9.73;;;3.22;;
77417;SDS011;66490;51.484;0.026;2023-04-25T05:23:11;10.68;;;3.72;;
77417;SDS011;66490;51.484;0.026;2023-04-25T05:25:56;13.07;;;2.73;;
77417;SDS011;66490;51.484;0.026;2023-04-25T05:28:43;13.43;;;3.92;;
77417;SDS011;66490;51.484;0.026;2023-04-25T05:31:35;16.58;;;4.07;;
77417;SDS011;66490;51.484;0.026;2023-04-25T05:34:19;11.85;;;3.67;;
77417;SDS011;66490;51.484;0.026;2023-04-25T05:37:03;7.68;;;3.08;;
77417;SDS011;66490;51.484;0.026;2023-04-25T05:39:47;12.93;;;3.30;;
77417;SDS011;66490;51.484;0.026;2023-04-25T05:42:32;18.75;;;3.58;;
77417;SDS011;66490;51.484;0.026;2023-04-25T05:45:16;12.75;;;4.05;;
77417;SDS011;66490;51.484;0.026;2023-04-25T05:48:01;11.60;;;3.88;;
77417;SDS011;66490;51.484;0.026;2023-04-25T05:50:45;13.98;;;3.67;;
77417;SDS011;66490;51.484;0.026;2023-04-25T05:53:28;8.40;;;2.80;;
77417;SDS011;66490;51.484;0.026;2023-04-25T05:56:12;18.27;;;3.78;;
77417;SDS011;66490;51.484;0.026;2023-04-25T05:58:56;12.25;;;3.38;;
77417;SDS011;66490;51.484;0.026;2023-04-25T06:01:41;10.38;;;3.10;;
77417;SDS011;66490;51.484;0.026;2023-04-25T06:04:25;11.73;;;4.00;;
77417;SDS011;66490;51.484;0.026;2023-04-25T06:07:09;14.43;;;3.27;;
77417;SDS011;66490;51.484;0.026;2023-04-25T06:09:53;12.65;;;3.95;;
77417;SDS011;66490;51.484;0.026;2023-04-25T06:12:37;15.35;;;3.90;;
77417;SDS011;66490;51.484;0.026;2023-04-25T06:15:22;11.15;;;3.55;;
77417;SDS011;66490;51.484;0.026;2023-04-25T06:18:09;19.27;;;3.95;;
77417;SDS011;66490;51.484;0.026;2023-04-25T06:20:53;14.37;;;3.10;;
77417;SDS011;66490;51.484;0.026;2023-04-25T06:23:40;11.55;;;3.38;;
77417;SDS011;66490;51.484;0.026;2023-04-25T06:26:26;10.05;;;3.42;;
77417;SDS011;66490;51.484;0.026;2023-04-25T06:29:10;15.18;;;3.08;;
77417;SDS011;66490;51.484;0.026;2023-04-25T06:31:58;9.13;;;3.13;;
77417;SDS011;66490;51.484;0.026;2023-04-25T06:34:41;13.63;;;3.27;;
77417;SDS011;66490;51.484;0.026;2023-04-25T06:37:26;12.93;;;3.33;;
77417;SDS011;66490;51.484;0.026;2023-04-25T06:40:09;14.32;;;3.53;;
77417;SDS011;66490;51.484;0.026;2023-04-25T06:42:54;14.98;;;3.95;;
77417;SDS011;66490;51.484;0.026;2023-04-25T06:45:38;13.25;;;4.47;;
77417;SDS011;66490;51.484;0.026;2023-04-25T06:48:22;11.17;;;3.73;;
77417;SDS011;66490;51.484;0.026;2023-04-25T06:51:05;14.98;;;3.40;;
77417;SDS011;66490;51.484;0.026;2023-04-25T06:53:49;14.00;;;3.67;;
77417;SDS011;66490;51.484;0.026;2023-04-25T06:56:33;15.75;;;3.22;;
77417;SDS011;66490;51.484;0.026;2023-04-25T06:59:17;10.10;;;3.15;;
77417;SDS011;66490;51.484;0.026;2023-04-25T07:02:01;14.20;;;3.53;;
77417;SDS011;66490;51.484;0.026;2023-04-25T07:04:46;10.43;;;3.63;;
77417;SDS011;66490;51.484;0.026;2023-04-25T07:07:30;15.35;;;3.72;;
77417;SDS011;66490;51.484;0.026;2023-04-25T07:10:14;10.18;;;3.38;;
77417;SDS011;66490;51.484;0.026;2023-04-25T07:12:58;10.63;;;3.70;;
77417;SDS011;66490;51.484;0.026;2023-04-25T07:15:43;10.10;;;3.30;;
77417;SDS011;66490;51.484;0.026;2023-04-25T07:18:27;10.55;;;3.00;;
77417;SDS011;66490;51.484;0.026;2023-04-25T07:21:11;9.43;;;2.40;;
77417;SDS011;66490;51.484;0.026;2023-04-25T07:23:55;11.00;;;2.95;;
77417;SDS011;66490;51.484;0.026;2023-04-25T07:26:39;13.02;;;3.80;;
77417;SDS011;66490;51.484;0.026;2023-04-25T07:29:23;8.50;;;3.03;;
77417;SDS011;66490;51.484;0.026;2023-04-25T07:32:07;11.43;;;3.00;;
77417;SDS011;66490;51.484;0.026;2023-04-25T07:34:51;12.73;;;2.72;;
77417;SDS011;66490;51.484;0.026;2023-04-25T07:37:35;9.38;;;2.63;;
77417;SDS011;66490;51.484;0.026;2023-04-25T07:40:19;16.85;;;3.92;;
77417;SDS011;66490;51.484;0.026;2023-04-25T07:43:12;14.13;;;2.53;;
77417;SDS011;66490;51.484;0.026;2023-04-25T07:46:00;13.38;;;2.80;;
77417;SDS011;66490;51.484;0.026;2023-04-25T07:48:44;12.43;;;3.00;;
77417;SDS011;66490;51.484;0.026;2023-04-25T07:51:28;8.23;;;2.08;;
77417;SDS011;66490;51.484;0.026;2023-04-25T07:54:13;11.52;;;2.53;;
77417;SDS011;66490;51.484;0.026;2023-04-25T07:57:00;7.87;;;1.80;;
77417;SDS011;66490;51.484;0.026;2023-04-25T07:59:49;16.67;;;2.92;;
77417;SDS011;66490;51.484;0.026;2023-04-25T08:02:33;11.13;;;3.00;;
77417;SDS011;66490;51.484;0.026;2023-04-25T08:05:18;11.43;;;2.70;;
77417;SDS011;66490;51.484;0.026;2023-04-25T08:08:01;10.48;;;2.45;;
77417;SDS011;66490;51.484;0.026;2023-04-25T08:10:45;9.97;;;2.30;;
77417;SDS011;66490;51.484;0.026;2023-04-25T08:13:32;8.25;;;2.25;;
77417;SDS011;66490;51.484;0.026;2023-04-25T08:16:16;13.02;;;2.45;;
77417;SDS011;66490;51.484;0.026;2023-04-25T08:19:00;5.35;;;2.15;;
77417;SDS011;66490;51.484;0.026;2023-04-25T08:21:44;16.20;;;2.67;;
77417;SDS011;66490;51.484;0.026;2023-04-25T08:24:28;14.53;;;2.80;;
77417;SDS011;66490;51.484;0.026;2023-04-25T08:27:12;8.10;;;2.80;;
77417;SDS011;66490;51.484;0.026;2023-04-25T08:29:59;16.45;;;2.38;;
77417;SDS011;66490;51.484;0.026;2023-04-25T08:32:42;8.65;;;2.42;;
77417;SDS011;66490;51.484;0.026;2023-04-25T08:35:26;11.07;;;2.65;;
77417;SDS011;66490;51.484;0.026;2023-04-25T08:38:11;11.10;;;2.07;;
77417;SDS011;66490;51.484;0.026;2023-04-25T08:41:05;11.43;;;2.28;;
77417;SDS011;66490;51.484;0.026;2023-04-25T08:43:50;11.52;;;2.97;;
77417;SDS011;66490;51.484;0.026;2023-04-25T08:46:35;9.23;;;1.85;;
77417;SDS011;66490;51.484;0.026;2023-04-25T08:49:21;12.60;;;2.92;;
77417;SDS011;66490;51.484;0.026;2023-04-25T08:52:05;11.90;;;2.37;;
77417;SDS011;66490;51.484;0.026;2023-04-25T08:54:50;11.60;;;1.98;;
77417;SDS011;66490;51.484;0.026;2023-04-25T08:57:38;8.48;;;2.17;;
77417;SDS011;66490;51.484;0.026;2023-04-25T09:00:22;11.68;;;2.30;;
77417;SDS011;66490;51.484;0.026;2023-04-25T09:03:07;12.38;;;2.72;;
77417;SDS011;66490;51.484;0.026;2023-04-25T09:05:51;8.23;;;1.97;;
77417;SDS011;66490;51.484;0.026;2023-04-25T09:08:36;10.05;;;2.25;;
77417;SDS011;66490;51.484;0.026;2023-04-25T09:11:20;10.10;;;2.58;;
77417;SDS011;66490;51.484;0.026;2023-04-25T09:14:14;12.70;;;2.75;;
77417;SDS011;66490;51.484;0.026;2023-04-25T09:17:00;12.32;;;2.90;;
77417;SDS011;66490;51.484;0.026;2023-04-25T09:19:44;9.90;;;1.97;;
77417;SDS011;66490;51.484;0.026;2023-04-25T09:22:29;10.02;;;2.80;;
77417;SDS011;66490;51.484;0.026;2023-04-25T09:25:13;10.00;;;2.67;;
77417;SDS011;66490;51.484;0.026;2023-04-25T09:27:58;8.73;;;2.55;;
77417;SDS011;66490;51.484;0.026;2023-04-25T09:30:46;12.98;;;2.35;;
77417;SDS011;66490;51.484;0.026;2023-04-25T09:33:31;5.70;;;1.77;;
77417;SDS011;66490;51.484;0.026;2023-04-25T09:36:16;9.48;;;2.40;;
77417;SDS011;66490;51.484;0.026;2023-04-25T09:38:59;14.10;;;2.22;;
77417;SDS011;66490;51.484;0.026;2023-04-25T09:41:44;7.68;;;2.30;;
77417;SDS011;66490;51.484;0.026;2023-04-25T09:44:29;10.32;;;2.65;;
77417;SDS011;66490;51.484;0.026;2023-04-25T09:47:14;7.63;;;1.90;;
77417;SDS011;66490;51.484;0.026;2023-04-25T09:49:59;7.63;;;1.80;;
77417;SDS011;66490;51.484;0.026;2023-04-25T09:52:43;5.90;;;1.67;;
77417;SDS011;66490;51.484;0.026;2023-04-25T09:55:28;7.45;;;2.08;;
77417;SDS011;66490;51.484;0.026;2023-04-25T09:58:12;14.43;;;3.83;;
77417;SDS011;66490;51.484;0.026;2023-04-25T10:01:03;12.27;;;2.77;;
77417;SDS011;66490;51.484;0.026;2023-04-25T10:03:47;15.88;;;2.33;;
77417;SDS011;66490;51.484;0.026;2023-04-25T10:06:34;9.45;;;1.83;;
77417;SDS011;66490;51.484;0.026;2023-04-25T10:09:20;7.72;;;1.35;;
77417;SDS011;66490;51.484;0.026;2023-04-25T10:12:04;9.82;;;1.95;;
77417;SDS011;66490;51.484;0.026;2023-04-25T10:14:48;7.83;;;1.10;;
77417;SDS011;66490;51.484;0.026;2023-04-25T10:17:32;7.28;;;1.80;;
77417;SDS011;66490;51.484;0.026;2023-04-25T10:20:18;15.85;;;2.28;;
77417;SDS011;66490;51.484;0.026;2023-04-25T10:23:13;8.90;;;1.63;;
77417;SDS011;66490;51.484;0.026;2023-04-25T10:25:58;4.18;;;1.42;;
77417;SDS011;66490;51.484;0.026;2023-04-25T10:29:02;6.53;;;2.00;;
77417;SDS011;66490;51.484;0.026;2023-04-25T10:31:46;5.72;;;1.30;;
77417;SDS011;66490;51.484;0.026;2023-04-25T10:34:37;4.15;;;1.30;;
77417;SDS011;66490;51.484;0.026;2023-04-25T10:37:22;5.72;;;1.73;;
77417;SDS011;66490;51.484;0.026;2023-04-25T10:40:10;6.25;;;2.65;;
77417;SDS011;66490;51.484;0.026;2023-04-25T10:42:54;7.00;;;1.80;;
77417;SDS011;66490;51.484;0.026;2023-04-25T10:45:52;5.93;;;1.80;;
77417;SDS011;66490;51.484;0.026;2023-04-25T10:48:36;5.03;;;1.60;;
77417;SDS011;66490;51.484;0.026;2023-04-25T10:54:10;6.43;;;1.98;;
77417;SDS011;66490;51.484;0.026;2023-04-25T10:56:55;3.80;;;1.40;;
77417;SDS011;66490;51.484;0.026;2023-04-25T10:59:42;5.63;;;1.67;;
77417;SDS011;66490;51.484;0.026;2023-04-25T11:02:27;8.20;;;2.22;;
77417;SDS011;66490;51.484;0.026;2023-04-25T11:05:36;6.43;;;1.83;;
77417;SDS011;66490;51.484;0.026;2023-04-25T11:08:20;6.15;;;2.20;;
77417;SDS011;66490;51.484;0.026;2023-04-25T11:11:12;6.10;;;2.00;;
77417;SDS011;66490;51.484;0.026;2023-04-25T11:13:56;9.60;;;2.50;;
77417;SDS011;66490;51.484;0.026;2023-04-25T11:16:41;4.70;;;1.85;;
77417;SDS011;66490;51.484;0.026;2023-04-25T11:19:25;4.95;;;1.67;;
77417;SDS011;66490;51.484;0.026;2023-04-25T11:22:12;5.32;;;2.08;;
77417;SDS011;66490;51.484;0.026;2023-04-25T11:24:56;7.40;;;1.60;;
77417;SDS011;66490;51.484;0.026;2023-04-25T11:27:50;4.60;;;2.20;;
77417;SDS011;66490;51.484;0.026;2023-04-25T11:30:35;5.72;;;2.22;;
77417;SDS011;66490;51.484;0.026;2023-04-25T11:33:22;8.43;;;2.30;;
77417;SDS011;66490;51.484;0.026;2023-04-25T11:36:07;7.28;;;2.95;;
77417;SDS011;66490;51.484;0.026;2023-04-25T11:38:51;7.00;;;2.30;;
77417;SDS011;66490;51.484;0.026;2023-04-25T11:41:37;8.20;;;2.65;;
77417;SDS011;66490;51.484;0.026;2023-04-25T11:44:21;5.93;;;2.85;;
77417;SDS011;66490;51.484;0.026;2023-04-25T11:47:05;5.95;;;2.47;;
77417;SDS011;66490;51.484;0.026;2023-04-25T11:49:52;6.10;;;2.05;;
77417;SDS011;66490;51.484;0.026;2023-04-25T11:52:40;6.90;;;2.37;;
77417;SDS011;66490;51.484;0.026;2023-04-25T11:55:25;6.70;;;2.40;;
77417;SDS011;66490;51.484;0.026;2023-04-25T11:58:09;6.85;;;3.17;;
77417;SDS011;66490;51.484;0.026;2023-04-25T12:00:53;10.73;;;3.67;;
77417;SDS011;66490;51.484;0.026;2023-04-25T12:03:45;6.82;;;3.05;;
77417;SDS011;66490;51.484;0.026;2023-04-25T12:06:29;7.13;;;2.73;;
77417;SDS011;66490;51.484;0.026;2023-04-25T12:09:15;5.63;;;2.50;;
77417;SDS011;66490;51.484;0.026;2023-04-25T12:12:01;5.40;;;2.35;;
77417;SDS011;66490;51.484;0.026;2023-04-25T12:14:47;6.55;;;2.10;;
77417;SDS011;66490;51.484;0.026;2023-04-25T12:17:35;5.43;;;2.05;;
77417;SDS011;66490;51.484;0.026;2023-04-25T12:20:20;8.60;;;2.07;;
77417;SDS011;66490;51.484;0.026;2023-04-25T12:23:07;5.03;;;2.28;;
77417;SDS011;66490;51.484;0.026;2023-04-25T12:25:51;6.55;;;1.80;;
77417;SDS011;66490;51.484;0.026;2023-04-25T12:28:35;4.20;;;1.70;;
77417;SDS011;66490;51.484;0.026;2023-04-25T12:31:19;9.13;;;2.05;;
77417;SDS011;66490;51.484;0.026;2023-04-25T12:34:03;6.90;;;2.00;;
77417;SDS011;66490;51.484;0.026;2023-04-25T12:36:48;4.38;;;1.77;;
77417;SDS011;66490;51.484;0.026;2023-04-25T12:39:34;6.57;;;2.20;;
77417;SDS011;66490;51.484;0.026;2023-04-25T12:42:18;5.22;;;1.52;;
77417;SDS011;66490;51.484;0.026;2023-04-25T12:45:02;6.32;;;1.50;;
77417;SDS011;66490;51.484;0.026;2023-04-25T12:47:46;6.90;;;1.73;;
77417;SDS011;66490;51.484;0.026;2023-04-25T12:50:30;6.80;;;1.73;;
77417;SDS011;66490;51.484;0.026;2023-04-25T12:53:15;4.82;;;1.38;;
77417;SDS011;66490;51.484;0.026;2023-04-25T12:55:59;5.70;;;1.48;;
77417;SDS011;66490;51.484;0.026;2023-04-25T12:58:43;4.22;;;1.83;;
77417;SDS011;66490;51.484;0.026;2023-04-25T13:01:28;6.13;;;1.93;;
77417;SDS011;66490;51.484;0.026;2023-04-25T13:04:12;5.70;;;1.42;;
77417;SDS011;66490;51.484;0.026;2023-04-25T13:06:56;5.07;;;1.70;;
77417;SDS011;66490;51.484;0.026;2023-04-25T13:09:40;6.00;;;1.83;;
77417;SDS011;66490;51.484;0.026;2023-04-25T13:12:24;4.85;;;1.98;;
77417;SDS011;66490;51.484;0.026;2023-04-25T13:15:09;5.40;;;1.77;;
77417;SDS011;66490;51.484;0.026;2023-04-25T13:17:54;4.95;;;1.63;;
77417;SDS011;66490;51.484;0.026;2023-04-25T13:20:39;8.88;;;1.80;;
77417;SDS011;66490;51.484;0.026;2023-04-25T13:23:24;8.07;;;1.77;;
77417;SDS011;66490;51.484;0.026;2023-04-25T13:26:08;7.97;;;1.83;;
77417;SDS011;66490;51.484;0.026;2023-04-25T13:28:52;7.30;;;2.10;;
77417;SDS011;66490;51.484;0.026;2023-04-25T13:31:36;7.13;;;2.03;;
77417;SDS011;66490;51.484;0.026;2023-04-25T13:34:20;4.43;;;1.85;;
77417;SDS011;66490;51.484;0.026;2023-04-25T13:37:04;7.78;;;1.70;;
77417;SDS011;66490;51.484;0.026;2023-04-25T13:39:48;5.70;;;1.77;;
77417;SDS011;66490;51.484;0.026;2023-04-25T13:42:33;5.13;;;1.60;;
77417;SDS011;66490;51.484;0.026;2023-04-25T13:45:17;7.82;;;1.92;;
77417;SDS011;66490;51.484;0.026;2023-04-25T13:48:00;6.88;;;2.08;;
77417;SDS011;66490;51.484;0.026;2023-04-25T13:50:44;6.28;;;1.90;;
77417;SDS011;66490;51.484;0.026;2023-04-25T13:53:29;7.85;;;2.45;;
77417;SDS011;66490;51.484;0.026;2023-04-25T13:56:13;5.27;;;1.63;;
77417;SDS011;66490;51.484;0.026;2023-04-25T13:58:57;6.90;;;2.00;;
77417;SDS011;66490;51.484;0.026;2023-04-25T14:01:42;7.38;;;2.53;;
77417;SDS011;66490;51.484;0.026;2023-04-25T14:04:25;6.18;;;2.40;;
77417;SDS011;66490;51.484;0.026;2023-04-25T14:07:09;7.05;;;1.92;;
77417;SDS011;66490;51.484;0.026;2023-04-25T14:09:57;7.33;;;2.10;;
77417;SDS011;66490;51.484;0.026;2023-04-25T14:12:44;6.45;;;1.95;;
77417;SDS011;66490;51.484;0.026;2023-04-25T14:15:29;10.55;;;2.30;;
77417;SDS011;66490;51.484;0.026;2023-04-25T14:18:12;5.50;;;1.92;;
77417;SDS011;66490;51.484;0.026;2023-04-25T14:20:56;6.70;;;2.40;;
77417;SDS011;66490;51.484;0.026;2023-04-25T14:23:40;6.53;;;2.23;;
77417;SDS011;66490;51.484;0.026;2023-04-25T14:26:25;7.82;;;2.20;;
77417;SDS011;66490;51.484;0.026;2023-04-25T14:32:19;7.15;;;1.98;;
77417;SDS011;66490;51.484;0.026;2023-04-25T14:35:03;6.38;;;2.20;;
77417;SDS011;66490;51.484;0.026;2023-04-25T14:37:51;3.70;;;1.90;;
77417;SDS011;66490;51.484;0.026;2023-04-25T14:40:36;5.45;;;1.98;;
77417;SDS011;66490;51.484;0.026;2023-04-25T14:43:21;5.63;;;1.70;;
77417;SDS011;66490;51.484;0.026;2023-04-25T14:46:05;4.75;;;1.73;;
77417;SDS011;66490;51.484;0.026;2023-04-25T14:48:50;8.82;;;2.33;;
77417;SDS011;66490;51.484;0.026;2023-04-25T14:51:34;6.90;;;1.87;;
77417;SDS011;66490;51.484;0.026;2023-04-25T14:54:18;6.25;;;1.88;;
77417;SDS011;66490;51.484;0.026;2023-04-25T14:57:02;6.25;;;2.28;;
77417;SDS011;66490;51.484;0.026;2023-04-25T14:59:46;3.63;;;1.70;;
77417;SDS011;66490;51.484;0.026;2023-04-25T15:02:32;8.68;;;2.03;;
77417;SDS011;66490;51.484;0.026;2023-04-25T15:05:18;4.47;;;1.93;;
77417;SDS011;66490;51.484;0.026;2023-04-25T15:08:03;7.35;;;1.60;;
77417;SDS011;66490;51.484;0.026;2023-04-25T15:10:47;6.15;;;2.22;;
77417;SDS011;66490;51.484;0.026;2023-04-25T15:13:31;6.50;;;2.00;;
77417;SDS011;66490;51.484;0.026;2023-04-25T15:16:15;6.05;;;2.05;;
77417;SDS011;66490;51.484;0.026;2023-04-25T15:21:42;5.80;;;1.83;;
77417;SDS011;66490;51.484;0.026;2023-04-25T15:24:27;6.38;;;1.90;;
77417;SDS011;66490;51.484;0.026;2023-04-25T15:27:12;5.97;;;2.00;;
77417;SDS011;66490;51.484;0.026;2023-04-25T15:29:56;6.13;;;2.58;;
77417;SDS011;66490;51.484;0.026;2023-04-25T15:32:41;4.27;;;1.47;;
77417;SDS011;66490;51.484;0.026;2023-04-25T15:35:25;5.65;;;2.10;;
77417;SDS011;66490;51.484;0.026;2023-04-25T15:38:09;6.07;;;2.00;;
77417;SDS011;66490;51.484;0.026;2023-04-25T15:40:56;5.75;;;1.60;;
77417;SDS011;66490;51.484;0.026;2023-04-25T15:43:41;5.95;;;1.92;;
77417;SDS011;66490;51.484;0.026;2023-04-25T15:46:25;7.43;;;2.07;;
77417;SDS011;66490;51.484;0.026;2023-04-25T15:49:09;5.78;;;1.73;;
77417;SDS011;66490;51.484;0.026;2023-04-25T15:51:53;8.18;;;2.17;;
77417;SDS011;66490;51.484;0.026;2023-04-25T15:54:38;4.78;;;1.83;;
77417;SDS011;66490;51.484;0.026;2023-04-25T15:57:22;6.63;;;2.10;;
77417;SDS011;66490;51.484;0.026;2023-04-25T16:00:06;6.50;;;1.97;;
77417;SDS011;66490;51.484;0.026;2023-04-25T16:02:56;7.93;;;1.80;;
77417;SDS011;66490;51.484;0.026;2023-04-25T16:05:40;4.63;;;1.83;;
77417;SDS011;66490;51.484;0.026;2023-04-25T16:08:24;6.35;;;1.80;;
77417;SDS011;66490;51.484;0.026;2023-04-25T16:11:09;5.75;;;1.50;;
77417;SDS011;66490;51.484;0.026;2023-04-25T16:13:53;5.17;;;1.60;;
77417;SDS011;66490;51.484;0.026;2023-04-25T16:16:37;4.57;;;1.40;;
77417;SDS011;66490;51.484;0.026;2023-04-25T16:19:21;7.63;;;2.42;;
77417;SDS011;66490;51.484;0.026;2023-04-25T16:22:05;5.78;;;1.63;;
77417;SDS011;66490;51.484;0.026;2023-04-25T16:24:51;4.32;;;1.88;;
77417;SDS011;66490;51.484;0.026;2023-04-25T16:27:36;4.33;;;1.83;;
77417;SDS011;66490;51.484;0.026;2023-04-25T16:30:23;5.00;;;1.50;;
77417;SDS011;66490;51.484;0.026;2023-04-25T16:33:07;6.32;;;1.88;;
77417;SDS011;66490;51.484;0.026;2023-04-25T16:35:51;6.38;;;1.48;;